Terminal Aerodrome Forecast
Issued by NWS

Home | Current Version | Previous Version | Text Only | Print | Product List | Glossary On
Versions: 1 2 3 4 5 6 7 8 9 10 11 12 13 14 15 16 17
891
FTUS45 KRIW 262334
TAFCPR
TAF
KCPR 262334Z 2700/2724 36006KT 1 1/2SM -SN SCT008 OVC012
     FM270200 30006KT 4SM -SN SCT008 OVC015
     FM270900 26008KT P6SM VCSH SCT015 OVC025=

USA.gov is the U.S. government's official web portal to all federal, state and local government web resources and services.